METAR Data
IDs: Format: Raw Decoded Include TAF

Data at: 1238 UTC 16 Jul 2019

KCNM 161153Z AUTO 18004KT 10SM CLR 24/14 A2999 RMK AO2 SLP090 T02390139 10272 20239 53006
KCNM 161053Z AUTO 15009KT 10SM CLR 24/13 A2996 RMK AO2 SLP081 T02440133
KCNM 160953Z AUTO 14008KT 10SM CLR 24/12 A2996 RMK AO2 SLP080 T02440117
KCNM 160853Z AUTO 13006KT 10SM CLR 25/11 A2997 RMK AO2 SLP082 T02500111 58002
KCNM 160753Z AUTO 15006KT 10SM CLR 26/11 A2998 RMK AO2 SLP085 T02610111
KCNM 160653Z AUTO 20006KT 10SM CLR 27/11 A2998 RMK AO2 SLP085 T02720106 403720194
KCNM 160553Z AUTO 18007KT 10SM CLR 27/10 A2997 RMK AO2 SLP085 T02670100 10356 20267 51010
KCNM 160453Z AUTO 18006KT 10SM CLR 28/10 A2997 RMK AO2 SLP083 T02780100
KCNM 160353Z AUTO 15007KT 10SM CLR 30/10 A2996 RMK AO2 SLP079 T03000100
KCNM 160253Z AUTO 15009KT 10SM CLR 32/09 A2994 RMK AO2 SLP075 T03170094 53005
KCNM 160153Z AUTO 14009KT 10SM CLR 33/08 A2993 RMK AO2 SLP072 T03330083
KCNM 160053Z AUTO 16012KT 10SM CLR 35/08 A2992 RMK AO2 SLP071 T03500083
KCNM 152353Z AUTO 16008KT 10SM CLR 35/08 A2993 RMK AO2 SLP073 T03500083 10372 20339 56017
KCNM 152253Z AUTO 14013KT 10SM CLR 37/09 A2994 RMK AO2 SLP074 T03670089
KCNM 152153Z AUTO 10009KT 10SM CLR 37/06 A2996 RMK AO2 SLP079 T03670061
KCNM 152053Z AUTO VRB05G18KT 10SM CLR 36/07 A2998 RMK AO2 SLP088 T03610072 58015
KCNM 151953Z AUTO 16010G18KT 130V190 10SM CLR 36/09 A3000 RMK AO2 SLP093 T03610094
KCNM 151853Z AUTO 15013G18KT 10SM CLR 35/09 A3002 RMK AO2 SLP100 T03500089
KCNM 151753Z AUTO 15010KT 10SM CLR 34/09 A3003 RMK AO2 SLP104 T03440094 10344 20194 56011
KCNM 151653Z AUTO 16013KT 10SM CLR 33/11 A3004 RMK AO2 SLP107 T03280111
KCNM 151553Z AUTO 15007KT 10SM CLR 31/12 A3006 RMK AO2 SLP114 T03060117
KCNM 151453Z AUTO 12008KT 10SM CLR 27/12 A3007 RMK AO2 SLP119 T02720122 50005
KCNM 151353Z AUTO 05004KT 10SM CLR 24/12 A3007 RMK AO2 SLP122 T02440117
KCNM 151253Z AUTO 36003KT 9SM CLR 21/12 A3006 RMK AO2 SLP117 T02110117
KCNM 151153Z AUTO 01004KT 10SM CLR 19/10 A3005 RMK AO2 SLP116 T01940100 10250 20194 53001
KCNM 151053Z AUTO 00000KT 10SM CLR 21/11 A3004 RMK AO2 SLP111 T02110106
KCNM 150953Z AUTO 15003KT 10SM CLR 22/10 A3004 RMK AO2 SLP110 T02170100
KCNM 150853Z AUTO 17004KT 10SM CLR 23/09 A3005 RMK AO2 SLP113 T02280094 58000
KCNM 150753Z AUTO 19006KT 10SM CLR 22/10 A3005 RMK AO2 SLP115 T02220100
KCNM 150653Z AUTO 20005KT 10SM CLR 24/10 A3006 RMK AO2 SLP117 T02390100 403610194
KCNM 150553Z AUTO 19007KT 10SM CLR 25/09 A3005 RMK AO2 SLP114 T02500094 10356 20244 51013
KCNM 150453Z AUTO 16006KT 10SM CLR 26/09 A3004 RMK AO2 SLP111 T02560094
KCNM 150353Z AUTO 14008KT 10SM CLR 28/09 A3003 RMK AO2 SLP106 T02830094
KCNM 150253Z AUTO 12008KT 10SM CLR 31/09 A3001 RMK AO2 SLP100 T03060094 53005
KCNM 150153Z AUTO 11008KT 10SM CLR 33/09 A2999 RMK AO2 SLP092 T03280094
KCNM 150053Z AUTO 15004KT 10SM CLR 35/09 A2998 RMK AO2 SLP091 T03500094